createdAt,value
2022-08-08T00:00:52.189Z,74.23
2022-08-08T00:01:08.176Z,73.83
2022-08-08T00:02:43.156Z,74.33
2022-08-08T00:03:20.004Z,74.23
2022-08-08T00:04:04.165Z,73.83
2022-08-08T00:05:09.855Z,74.13
2022-08-08T00:06:04.523Z,72.92
2022-08-08T00:07:12.422Z,73.93
2022-08-08T00:08:04.168Z,74.43
2022-08-08T00:09:04.104Z,72.92
2022-08-08T00:10:04.105Z,73.93
2022-08-08T00:11:08.087Z,72.72
2022-08-08T00:12:09.920Z,73.93
2022-08-08T00:13:04.107Z,73.22
2022-08-08T00:14:16.780Z,74.03
2022-08-08T00:15:05.175Z,74.23
2022-08-08T00:16:04.109Z,74.33
2022-08-08T00:17:04.118Z,74.33
2022-08-08T00:18:04.769Z,73.93
2022-08-08T00:19:04.106Z,74.13
2022-08-08T00:20:04.106Z,73.12
2022-08-08T00:21:06.110Z,72.92
2022-08-08T00:22:04.156Z,72.81
2022-08-08T00:23:06.319Z,74.13
2022-08-08T00:24:04.111Z,73.02
2022-08-08T00:25:04.108Z,73.22
2022-08-08T00:26:04.106Z,73.93
2022-08-08T00:27:05.947Z,74.30
2022-08-08T00:28:04.108Z,73.69
2022-08-08T00:29:08.144Z,74.19
2022-08-08T00:30:04.107Z,74.50
2022-08-08T00:32:14.953Z,73.39
2022-08-08T00:32:28.966Z,73.69
2022-08-08T00:33:04.108Z,73.28
2022-08-08T00:34:18.484Z,74.10
2022-08-08T00:35:04.482Z,73.99
2022-08-08T00:36:04.108Z,74.60
2022-08-08T00:37:11.320Z,74.30
2022-08-08T00:38:04.134Z,73.79
2022-08-08T00:39:04.107Z,74.30
2022-08-08T00:41:11.327Z,75.31
2022-08-08T00:41:11.593Z,74.77
2022-08-08T00:42:08.044Z,74.26
2022-08-08T00:43:11.915Z,74.26
2022-08-08T00:44:04.184Z,73.96
2022-08-08T00:45:04.118Z,73.75
2022-08-08T00:46:04.116Z,74.66
2022-08-08T00:47:04.407Z,73.05
2022-08-08T00:48:06.116Z,71.64
2022-08-08T00:49:04.115Z,72.55
2022-08-08T00:50:04.112Z,73.08
2022-08-08T00:51:04.114Z,73.08
2022-08-08T00:52:04.113Z,74.19
2022-08-08T00:53:04.114Z,73.79
2022-08-08T00:54:15.433Z,74.50
2022-08-08T00:55:04.114Z,73.02
2022-08-08T00:56:04.115Z,72.92
2022-08-08T00:57:04.113Z,74.23
2022-08-08T00:58:04.116Z,74.63
2022-08-08T00:59:04.117Z,74.74
2022-08-08T01:00:06.421Z,75.38
2022-08-08T01:01:04.157Z,75.28
2022-08-08T01:02:04.160Z,76.12
2022-08-08T01:04:01.526Z,75.79
2022-08-08T01:04:05.010Z,76.50
2022-08-08T01:05:04.125Z,76.23
2022-08-08T01:06:04.123Z,76.53
2022-08-08T01:07:05.774Z,76.23
2022-08-08T01:08:04.119Z,76.63
2022-08-08T01:09:35.154Z,76.23
2022-08-08T01:10:05.958Z,76.43
2022-08-08T01:11:07.932Z,76.53
2022-08-08T01:12:04.120Z,76.93
2022-08-08T01:13:04.122Z,76.73
2022-08-08T01:14:04.122Z,76.83
2022-08-08T01:15:06.743Z,76.73
2022-08-08T01:16:04.121Z,76.43
2022-08-08T01:17:04.688Z,77.64
2022-08-08T01:18:04.126Z,76.26
2022-08-08T01:19:13.701Z,76.83
2022-08-08T01:20:04.475Z,76.03
2022-08-08T01:21:04.129Z,76.73
2022-08-08T01:22:12.607Z,76.63
2022-08-08T01:23:04.125Z,77.34
2022-08-08T01:24:13.578Z,76.93
2022-08-08T01:25:05.074Z,76.83
2022-08-08T01:26:11.218Z,76.63
2022-08-08T01:27:07.064Z,76.32
2022-08-08T01:28:04.122Z,76.43
2022-08-08T01:29:05.739Z,76.67
2022-08-08T01:30:04.127Z,77.58
2022-08-08T01:31:05.927Z,77.78
2022-08-08T01:32:15.731Z,77.51
2022-08-08T01:33:16.310Z,78.12
2022-08-08T01:34:04.124Z,78.63
2022-08-08T01:35:11.094Z,78.56
2022-08-08T01:36:04.124Z,78.93
2022-08-08T01:37:05.876Z,78.66
2022-08-08T01:38:04.123Z,78.46
2022-08-08T01:39:04.161Z,79.03
2022-08-08T01:40:04.263Z,78.66
2022-08-08T01:41:04.128Z,78.33
2022-08-08T01:42:04.127Z,78.93
2022-08-08T01:43:04.128Z,79.03
2022-08-08T01:44:04.127Z,78.63
2022-08-08T01:45:04.135Z,79.03
2022-08-08T01:46:04.129Z,78.69
2022-08-08T01:47:05.909Z,78.19
2022-08-08T01:48:16.242Z,78.08
2022-08-08T01:49:04.126Z,77.98
2022-08-08T01:50:04.128Z,77.58
2022-08-08T01:51:06.360Z,77.44
2022-08-08T01:52:40.197Z,76.73
2022-08-08T01:55:15.495Z,76.93
2022-08-08T01:55:15.914Z,75.52
2022-08-08T01:55:25.474Z,75.42
2022-08-08T01:56:28.618Z,75.52
2022-08-08T01:57:04.126Z,75.85
2022-08-08T01:58:13.342Z,76.16
2022-08-08T01:59:04.127Z,76.16
2022-08-08T02:00:04.142Z,75.79
2022-08-08T02:01:04.212Z,76.29
2022-08-08T02:02:05.256Z,76.94
2022-08-08T02:03:04.480Z,77.61
2022-08-08T02:04:04.144Z,78.16
2022-08-08T02:05:04.130Z,77.75
2022-08-08T02:06:04.132Z,78.26
2022-08-08T02:07:04.289Z,78.66
2022-08-08T02:08:04.138Z,79.07
2022-08-08T02:09:16.278Z,78.66
2022-08-08T02:10:11.489Z,79.47
2022-08-08T02:11:04.131Z,79.38
2022-08-08T02:13:52.831Z,79.92
2022-08-08T02:14:55.031Z,79.41
2022-08-08T02:15:47.872Z,79.92
2022-08-08T02:16:47.872Z,79.96
2022-08-08T02:17:47.871Z,80.22
2022-08-08T02:18:47.873Z,80.06
2022-08-08T02:20:07.764Z,81.18
2022-08-08T02:21:02.777Z,80.46
2022-08-08T02:21:48.896Z,80.93
2022-08-08T02:22:54.989Z,80.36
2022-08-08T02:23:47.874Z,80.53
2022-08-08T02:24:47.872Z,80.53
2022-08-08T02:25:48.800Z,80.32
2022-08-08T02:26:47.872Z,80.53
2022-08-08T02:27:47.877Z,80.12
2022-08-08T02:28:48.538Z,80.32
2022-08-08T02:29:52.625Z,80.39
2022-08-08T02:30:49.707Z,80.19
2022-08-08T02:32:00.905Z,79.78
2022-08-08T02:32:47.872Z,78.87
2022-08-08T02:34:07.209Z,78.42
2022-08-08T02:35:06.443Z,78.77
2022-08-08T02:36:04.368Z,77.86
2022-08-08T02:36:47.873Z,78.36
2022-08-08T02:37:52.043Z,78.36
2022-08-08T02:38:48.987Z,78.33
2022-08-08T02:39:59.800Z,78.26
2022-08-08T02:40:50.271Z,78.87
2022-08-08T02:41:59.446Z,78.77
2022-08-08T02:42:47.872Z,77.95
2022-08-08T02:44:38.438Z,78.36
2022-08-08T02:44:57.400Z,79.07
2022-08-08T02:45:51.440Z,79.41
2022-08-08T02:46:47.871Z,79.21
2022-08-08T02:47:54.757Z,79.35
2022-08-08T02:48:48.005Z,79.82
2022-08-08T02:49:51.879Z,79.04
2022-08-08T02:50:55.651Z,79.45
2022-08-08T02:51:56.443Z,79.96
2022-08-08T02:52:50.546Z,80.40
2022-08-08T02:53:47.872Z,81.41
2022-08-08T02:54:50.194Z,82.12
2022-08-08T02:55:47.870Z,81.82
2022-08-08T02:56:47.869Z,82.03
2022-08-08T02:57:51.351Z,81.92
2022-08-08T02:58:47.871Z,81.92
2022-08-08T02:59:57.472Z,82.23
2022-08-08T03:00:50.797Z,82.12
2022-08-08T03:01:50.556Z,81.62
2022-08-08T03:02:50.575Z,81.01
2022-08-08T03:05:04.389Z,80.50
2022-08-08T03:05:04.609Z,81.27
2022-08-08T03:05:53.371Z,80.97
2022-08-08T03:06:47.870Z,80.46
2022-08-08T03:07:58.432Z,80.57
2022-08-08T03:08:51.907Z,81.38
2022-08-08T03:09:47.874Z,80.57
2022-08-08T03:10:53.515Z,80.36
2022-08-08T03:12:02.235Z,79.45
2022-08-08T03:13:01.025Z,79.11
2022-08-08T03:15:56.876Z,78.03
2022-08-08T03:15:58.851Z,78.47
2022-08-08T03:16:03.866Z,78.74
2022-08-08T03:16:48.657Z,79.59
2022-08-08T03:17:59.663Z,79.18
2022-08-08T03:18:47.869Z,78.91
2022-08-08T03:19:50.942Z,79.38
2022-08-08T03:20:51.353Z,79.93
2022-08-08T03:21:58.810Z,80.54
2022-08-08T03:22:47.869Z,80.74
2022-08-08T03:23:59.361Z,80.64
2022-08-08T03:24:47.869Z,80.54
2022-08-08T03:25:50.055Z,79.97
2022-08-08T03:26:47.866Z,79.77
2022-08-08T03:27:47.866Z,79.29
2022-08-08T03:28:51.298Z,79.90
2022-08-08T03:29:55.580Z,80.00
2022-08-08T03:30:48.742Z,80.82
2022-08-08T03:32:05.158Z,80.72
2022-08-08T03:32:57.691Z,80.96
2022-08-08T03:33:55.864Z,81.77
2022-08-08T03:34:48.074Z,82.68
2022-08-08T03:35:47.875Z,82.79
2022-08-08T03:36:47.864Z,82.99
2022-08-08T03:37:59.793Z,81.23
2022-08-08T03:38:56.241Z,81.43
2022-08-08T03:39:51.910Z,81.98
2022-08-08T03:40:51.695Z,81.87
2022-08-08T03:42:27.761Z,81.98
2022-08-08T03:42:47.914Z,82.99
2022-08-08T03:43:47.864Z,82.99
2022-08-08T03:44:52.181Z,83.40
2022-08-08T03:46:07.443Z,81.87
2022-08-08T03:46:47.861Z,81.98
2022-08-08T03:47:51.195Z,82.79
2022-08-08T03:49:54.988Z,83.64
2022-08-08T03:49:57.356Z,84.72
2022-08-08T03:50:48.589Z,84.92
2022-08-08T03:51:51.191Z,84.21
2022-08-08T03:52:47.862Z,84.68
2022-08-08T03:53:48.003Z,84.38
2022-08-08T03:55:01.906Z,85.09
2022-08-08T03:55:56.597Z,84.42
2022-08-08T03:56:47.859Z,84.28
2022-08-08T03:58:35.613Z,84.28
2022-08-08T03:58:48.053Z,84.78
2022-08-08T04:00:02.854Z,83.26
2022-08-08T04:00:56.501Z,82.65
2022-08-08T04:02:15.908Z,82.95
2022-08-08T04:02:52.124Z,83.15
2022-08-08T04:03:59.210Z,83.09
2022-08-08T04:04:47.903Z,83.29
2022-08-08T04:05:50.071Z,84.01
2022-08-08T04:06:47.855Z,84.42
2022-08-08T04:07:47.854Z,84.72
2022-08-08T04:08:47.854Z,84.48
2022-08-08T04:09:59.051Z,85.23
2022-08-08T04:10:47.849Z,85.23
2022-08-08T04:11:48.384Z,85.39
2022-08-08T04:12:47.850Z,85.03
2022-08-08T04:14:03.082Z,85.13
2022-08-08T04:14:50.594Z,85.09
2022-08-08T04:15:54.712Z,84.88
2022-08-08T04:16:49.214Z,84.48
2022-08-08T04:17:59.068Z,84.68
2022-08-08T04:18:48.723Z,85.09
2022-08-08T04:19:47.845Z,84.99
2022-08-08T04:20:47.855Z,84.99
2022-08-08T04:21:47.846Z,84.88
2022-08-08T04:22:51.453Z,84.07
2022-08-08T04:24:05.648Z,84.88
2022-08-08T04:24:50.132Z,84.38
2022-08-08T04:25:47.843Z,83.67
2022-08-08T04:26:57.276Z,83.56
2022-08-08T04:28:35.479Z,84.07
2022-08-08T04:28:47.840Z,83.97
2022-08-08T04:29:55.331Z,84.68
2022-08-08T04:30:47.843Z,84.28
2022-08-08T04:31:59.059Z,84.31
2022-08-08T04:32:49.831Z,85.03
2022-08-08T04:33:47.839Z,85.13
2022-08-08T04:34:55.778Z,85.74
2022-08-08T04:35:51.050Z,85.60
2022-08-08T04:36:47.836Z,85.74
2022-08-08T04:37:49.246Z,85.74
2022-08-08T04:40:31.605Z,85.84
2022-08-08T04:41:35.848Z,85.80
2022-08-08T04:42:32.613Z,85.84
2022-08-08T04:43:45.327Z,86.31
2022-08-08T04:44:33.797Z,86.82
2022-08-08T04:45:31.572Z,85.80
2022-08-08T04:46:31.568Z,85.15
2022-08-08T04:47:31.569Z,85.05
2022-08-08T04:48:31.569Z,85.05
2022-08-08T04:50:00.298Z,84.74
2022-08-08T04:50:38.239Z,84.95
2022-08-08T04:51:48.344Z,84.74
2022-08-08T04:52:34.161Z,84.84
2022-08-08T04:54:36.047Z,84.84
2022-08-08T04:54:39.242Z,84.74
2022-08-08T04:55:47.599Z,84.84
2022-08-08T04:56:31.563Z,84.95
2022-08-08T04:57:31.563Z,84.95
2022-08-08T04:58:31.569Z,85.05
2022-08-08T04:59:31.567Z,84.95
2022-08-08T05:00:31.561Z,84.50
2022-08-08T05:01:35.493Z,85.01
2022-08-08T05:02:31.947Z,84.80
2022-08-08T05:04:09.669Z,83.99
2022-08-08T05:04:31.560Z,83.79
2022-08-08T05:05:45.088Z,83.99
2022-08-08T05:06:31.561Z,83.75
2022-08-08T05:07:37.878Z,83.45
2022-08-08T05:08:31.558Z,83.69
2022-08-08T05:09:31.560Z,83.54
2022-08-08T05:10:31.552Z,83.14
2022-08-08T05:11:38.921Z,83.65
2022-08-08T05:12:31.752Z,83.54
2022-08-08T05:13:31.694Z,83.14
2022-08-08T05:14:31.552Z,83.95
2022-08-08T05:16:49.369Z,84.26
2022-08-08T05:16:53.369Z,83.34
2022-08-08T05:17:53.766Z,83.14
2022-08-08T05:18:31.551Z,83.24
2022-08-08T05:20:11.573Z,83.14
2022-08-08T05:20:31.996Z,83.61
2022-08-08T05:21:31.549Z,83.31
2022-08-08T05:22:31.918Z,83.10
2022-08-08T05:23:31.548Z,82.70
2022-08-08T05:24:31.549Z,82.90
2022-08-08T05:25:40.465Z,82.50
2022-08-08T05:26:31.543Z,83.00
2022-08-08T05:27:33.288Z,83.87
2022-08-08T05:28:55.963Z,83.17
2022-08-08T05:29:31.543Z,83.06
2022-08-08T05:30:31.543Z,82.56
2022-08-08T05:32:03.846Z,82.66
2022-08-08T05:32:36.173Z,82.86
2022-08-08T05:33:43.901Z,82.82
2022-08-08T05:34:31.537Z,82.35
2022-08-08T05:35:31.546Z,82.42
2022-08-08T05:36:31.539Z,81.81
2022-08-08T05:37:49.019Z,82.52
2022-08-08T05:38:32.512Z,83.23
2022-08-08T05:39:35.021Z,82.68
2022-08-08T05:40:31.533Z,81.71
2022-08-08T05:41:31.540Z,80.99
2022-08-08T05:42:31.776Z,81.37
2022-08-08T05:44:02.562Z,81.40
2022-08-08T05:44:31.536Z,82.68
2022-08-08T05:45:43.255Z,82.68
2022-08-08T05:46:31.538Z,82.98
2022-08-08T05:47:52.474Z,82.58
2022-08-08T05:48:31.556Z,81.83
2022-08-08T05:49:31.541Z,82.48
2022-08-08T05:50:33.550Z,82.54
2022-08-08T05:51:37.468Z,82.54
2022-08-08T05:52:31.877Z,82.95
2022-08-08T05:54:24.963Z,82.81
2022-08-08T05:54:50.351Z,82.84
2022-08-08T05:56:10.244Z,82.40
2022-08-08T05:56:31.528Z,81.79
2022-08-08T05:58:05.311Z,82.50
2022-08-08T05:58:33.407Z,83.01
2022-08-08T05:59:53.801Z,83.01
2022-08-08T06:00:34.378Z,83.41
2022-08-08T06:01:51.740Z,81.39
2022-08-08T06:02:31.523Z,81.18
2022-08-08T06:03:31.611Z,80.78
2022-08-08T06:04:31.527Z,80.58
2022-08-08T06:05:35.642Z,80.27
2022-08-08T06:06:32.607Z,81.96
2022-08-08T06:07:31.696Z,80.13
2022-08-08T06:08:34.652Z,80.74
2022-08-08T06:09:58.448Z,79.63
2022-08-08T06:10:31.533Z,79.22
2022-08-08T06:11:31.530Z,79.33
2022-08-08T06:12:31.610Z,78.42
2022-08-08T06:13:36.565Z,78.17
2022-08-08T06:14:31.524Z,79.49
2022-08-08T06:15:50.688Z,78.38
2022-08-08T06:16:31.700Z,78.99
2022-08-08T06:17:31.982Z,78.04
2022-08-08T06:18:31.525Z,78.14
2022-08-08T06:19:35.219Z,78.04
2022-08-08T06:20:31.723Z,78.34
2022-08-08T06:21:48.513Z,76.52
2022-08-08T06:22:33.192Z,77.90
2022-08-08T06:23:48.732Z,78.91
2022-08-08T06:24:35.996Z,79.11
2022-08-08T06:25:33.366Z,80.12
2022-08-08T06:26:44.527Z,79.62
2022-08-08T06:27:31.621Z,78.71
2022-08-08T06:28:31.519Z,79.28
2022-08-08T06:29:59.476Z,79.62
2022-08-08T06:30:31.521Z,78.50
2022-08-08T06:31:32.111Z,77.36
2022-08-08T06:32:31.530Z,76.45
2022-08-08T06:33:37.226Z,77.06
2022-08-08T06:34:31.519Z,76.92
2022-08-08T06:36:06.512Z,76.92
2022-08-08T06:36:31.519Z,76.01
2022-08-08T06:37:37.208Z,75.91
2022-08-08T06:38:31.517Z,77.22
2022-08-08T06:39:32.549Z,77.99
2022-08-08T06:40:31.964Z,77.49
2022-08-08T06:41:33.130Z,77.53
2022-08-08T06:42:31.532Z,77.89
2022-08-08T06:43:34.262Z,77.99
2022-08-08T06:44:31.525Z,76.28
2022-08-08T06:45:31.552Z,77.28
2022-08-08T06:46:31.527Z,75.77
2022-08-08T06:47:33.764Z,74.93
2022-08-08T06:48:31.522Z,74.83
2022-08-08T06:49:56.162Z,74.93
2022-08-08T06:50:33.604Z,74.73
2022-08-08T06:51:47.110Z,74.93
2022-08-08T06:52:31.520Z,75.43
2022-08-08T06:53:39.393Z,73.68
2022-08-08T06:54:31.519Z,73.48
2022-08-08T06:55:31.532Z,74.79
2022-08-08T06:56:31.522Z,75.40
2022-08-08T06:57:54.090Z,74.05
2022-08-08T06:58:33.049Z,75.20
2022-08-08T06:59:43.421Z,72.44
2022-08-08T07:00:31.522Z,72.94
2022-08-08T07:02:26.482Z,74.26
2022-08-08T07:02:32.227Z,74.35
2022-08-08T07:04:36.432Z,74.86
2022-08-08T07:04:37.477Z,74.26
2022-08-08T07:05:40.156Z,73.72
2022-08-08T07:06:31.528Z,74.82
2022-08-08T07:07:31.716Z,76.54
2022-08-08T07:08:31.523Z,77.14
2022-08-08T07:09:41.486Z,76.23
2022-08-08T07:10:31.539Z,76.03
2022-08-08T07:11:46.247Z,75.79
2022-08-08T07:12:31.525Z,75.09
2022-08-08T07:13:31.529Z,75.19
2022-08-08T07:14:31.530Z,75.09
2022-08-08T07:15:40.764Z,73.68
2022-08-08T07:16:31.529Z,74.58
2022-08-08T07:17:40.246Z,71.77
2022-08-08T07:18:37.080Z,72.94
2022-08-08T07:19:31.537Z,72.94
2022-08-08T07:20:31.777Z,72.54
2022-08-08T07:21:32.113Z,73.04
2022-08-08T07:22:31.528Z,73.14
2022-08-08T07:23:57.379Z,72.64
2022-08-08T07:24:31.531Z,73.71
2022-08-08T07:25:32.152Z,73.91
2022-08-08T07:26:32.735Z,75.22
2022-08-08T07:27:35.079Z,74.92
2022-08-08T07:28:31.936Z,72.91
2022-08-08T07:30:02.268Z,71.97
2022-08-08T07:30:31.538Z,72.87
2022-08-08T07:31:31.539Z,72.17
2022-08-08T07:32:31.549Z,70.66
2022-08-08T07:33:38.041Z,72.37
2022-08-08T07:34:32.430Z,72.13
2022-08-08T07:35:31.550Z,71.03
2022-08-08T07:36:31.545Z,71.94
2022-08-08T07:37:55.664Z,71.33
2022-08-08T07:38:31.545Z,71.43
2022-08-08T07:39:35.464Z,71.43
2022-08-08T07:40:32.540Z,72.24
2022-08-08T07:41:58.738Z,72.44
2022-08-08T07:42:32.910Z,71.63
2022-08-08T07:43:36.940Z,70.43
2022-08-08T07:44:38.225Z,69.39
2022-08-08T07:45:34.374Z,68.59
2022-08-08T07:46:31.548Z,68.08
2022-08-08T07:47:39.015Z,67.68
2022-08-08T07:48:31.555Z,67.08
2022-08-08T07:49:31.562Z,68.95
2022-08-08T07:50:31.551Z,67.55
2022-08-08T07:51:53.034Z,67.25
2022-08-08T07:52:31.553Z,68.15
2022-08-08T07:54:00.958Z,67.22
2022-08-08T07:54:31.555Z,67.52
2022-08-08T07:55:36.700Z,68.92
2022-08-08T07:56:36.252Z,67.11
2022-08-08T07:57:36.097Z,66.91
2022-08-08T07:58:31.555Z,68.12
2022-08-08T07:59:37.609Z,68.79
2022-08-08T08:00:31.560Z,68.32
2022-08-08T08:02:32.857Z,68.52
2022-08-08T08:02:36.388Z,68.52
2022-08-08T08:03:43.389Z,69.19
2022-08-08T08:04:31.563Z,69.29
2022-08-08T08:05:33.094Z,67.79
2022-08-08T08:06:31.566Z,67.58
2022-08-08T08:07:37.848Z,67.15
2022-08-08T08:08:31.569Z,68.59
2022-08-08T08:09:33.126Z,69.06
2022-08-08T08:10:33.056Z,66.78
2022-08-08T08:11:33.625Z,69.09
2022-08-08T08:12:41.425Z,68.26
2022-08-08T08:13:43.136Z,67.96
2022-08-08T08:14:31.579Z,69.06
2022-08-08T08:15:31.846Z,69.42
2022-08-08T08:16:32.142Z,68.52
2022-08-08T08:17:47.450Z,67.52
2022-08-08T08:18:32.292Z,66.82
2022-08-08T08:19:32.054Z,66.59
2022-08-08T08:20:32.039Z,67.39
2022-08-08T08:21:35.402Z,66.59
2022-08-08T08:22:33.815Z,66.69
2022-08-08T08:23:41.155Z,66.89
2022-08-08T08:24:32.476Z,65.55
2022-08-08T08:25:43.520Z,65.75
2022-08-08T08:26:31.606Z,66.28
2022-08-08T08:27:31.738Z,65.05
2022-08-08T08:28:31.612Z,66.25
2022-08-08T08:29:31.619Z,64.75
2022-08-08T08:30:31.618Z,65.66
2022-08-08T08:31:41.516Z,65.36
2022-08-08T08:32:36.327Z,65.36
2022-08-08T08:33:31.634Z,65.52
2022-08-08T08:34:32.135Z,63.82
2022-08-08T08:36:19.462Z,63.82
2022-08-08T08:36:31.687Z,63.12
2022-08-08T08:37:31.967Z,63.62
2022-08-08T08:38:31.760Z,64.12
2022-08-08T08:39:59.851Z,63.59
2022-08-08T08:40:31.729Z,62.99
2022-08-08T08:41:31.674Z,63.19
2022-08-08T08:42:36.557Z,62.70
2022-08-08T08:43:31.684Z,62.99
2022-08-08T08:44:31.688Z,63.09
2022-08-08T08:45:31.701Z,62.99
2022-08-08T08:46:31.703Z,62.79
2022-08-08T08:47:43.952Z,64.29
2022-08-08T08:48:31.713Z,63.66
2022-08-08T08:49:34.109Z,63.06
2022-08-08T08:50:34.924Z,63.03
2022-08-08T08:51:31.732Z,61.04
2022-08-08T08:52:31.773Z,62.50
2022-08-08T08:53:58.938Z,62.60
2022-08-08T08:54:32.569Z,61.00
2022-08-08T08:55:31.759Z,59.70
2022-08-08T08:56:31.765Z,56.91
2022-08-08T08:57:31.771Z,57.21
2022-08-08T08:58:31.776Z,58.18
2022-08-08T08:59:59.654Z,58.51
2022-08-08T09:00:44.600Z,59.21
2022-08-08T09:01:32.108Z,58.58
2022-08-08T09:02:31.800Z,59.88
2022-08-08T09:03:47.850Z,59.38
2022-08-08T09:04:39.628Z,59.31
2022-08-08T09:05:54.489Z,58.88
2022-08-08T09:06:34.048Z,58.31
2022-08-08T09:07:39.356Z,60.17
2022-08-08T09:08:31.836Z,58.61
2022-08-08T09:09:39.929Z,59.11
2022-08-08T09:10:31.840Z,60.31
2022-08-08T09:11:33.099Z,56.41
2022-08-08T09:12:31.864Z,58.51
2022-08-08T09:13:31.857Z,57.71
2022-08-08T09:14:31.854Z,58.31
2022-08-08T09:15:40.738Z,59.74
2022-08-08T09:16:32.884Z,60.83
2022-08-08T09:17:41.674Z,59.27
2022-08-08T09:18:31.872Z,61.07
2022-08-08T09:21:56.134Z,60.10
2022-08-08T09:21:57.483Z,59.47
2022-08-08T09:22:01.961Z,60.57
2022-08-08T09:22:31.890Z,60.77
2022-08-08T09:23:33.562Z,58.37
2022-08-08T09:24:31.890Z,59.09
2022-08-08T09:25:47.512Z,59.39
2022-08-08T09:26:32.586Z,58.80
2022-08-08T09:27:56.495Z,59.09
2022-08-08T09:28:38.245Z,58.59
2022-08-08T09:29:31.902Z,59.30
2022-08-08T09:30:31.907Z,59.39
2022-08-08T09:31:42.554Z,59.30
2022-08-08T09:32:32.002Z,58.80
2022-08-08T09:34:15.399Z,59.09
2022-08-08T09:34:34.216Z,58.80
2022-08-08T09:35:37.390Z,58.29
2022-08-08T09:36:31.921Z,57.79
2022-08-08T09:37:59.345Z,59.39
2022-08-08T09:38:32.757Z,58.19
2022-08-08T09:39:32.852Z,59.59
2022-08-08T09:40:45.571Z,58.49
2022-08-08T09:41:33.545Z,58.49
2022-08-08T09:42:31.943Z,59.19
2022-08-08T09:43:40.776Z,58.99
2022-08-08T09:44:34.396Z,59.79
2022-08-08T09:46:01.080Z,59.06
2022-08-08T09:46:32.055Z,59.69
2022-08-08T09:48:09.926Z,58.39
2022-08-08T09:48:32.510Z,59.09
2022-08-08T09:49:42.578Z,60.27
2022-08-08T09:50:32.496Z,58.97
2022-08-08T09:51:41.422Z,60.27
2022-08-08T09:52:57.449Z,60.36
2022-08-08T09:54:01.188Z,59.36
2022-08-08T09:54:37.571Z,59.27
2022-08-08T09:56:03.400Z,58.97
2022-08-08T09:56:31.966Z,59.27
2022-08-08T09:57:34.988Z,59.79
2022-08-08T09:58:36.150Z,59.09
2022-08-08T10:00:02.253Z,59.19
2022-08-08T10:00:49.701Z,58.49
2022-08-08T10:02:02.642Z,58.76
2022-08-08T10:02:32.220Z,58.06
2022-08-08T10:03:33.855Z,58.06
2022-08-08T10:04:42.329Z,60.27
2022-08-08T10:05:32.056Z,59.77
2022-08-08T10:06:32.359Z,60.27
2022-08-08T10:07:35.753Z,57.76
2022-08-08T10:08:31.990Z,57.87
2022-08-08T10:09:31.990Z,58.06
2022-08-08T10:10:32.593Z,58.37
2022-08-08T10:12:26.038Z,59.36
2022-08-08T10:12:38.471Z,59.97
2022-08-08T10:13:35.542Z,59.66
2022-08-08T10:14:38.743Z,59.06
2022-08-08T10:15:32.001Z,59.27
2022-08-08T10:16:32.008Z,58.94
2022-08-08T10:18:07.343Z,57.93
2022-08-08T10:18:33.011Z,58.24
2022-08-08T10:19:45.823Z,57.76
2022-08-08T10:20:40.501Z,58.17
2022-08-08T10:21:32.784Z,57.97
2022-08-08T10:22:32.728Z,58.56
2022-08-08T10:23:42.158Z,59.56
2022-08-08T10:24:35.198Z,58.76
2022-08-08T10:25:36.166Z,59.27
2022-08-08T10:26:52.016Z,58.37
2022-08-08T10:27:34.548Z,58.54
2022-08-08T10:28:32.030Z,57.93
2022-08-08T10:29:43.984Z,56.94
2022-08-08T10:30:57.479Z,56.74
2022-08-08T10:31:46.769Z,59.04
2022-08-08T10:32:32.283Z,58.73
2022-08-08T10:33:38.436Z,58.14
2022-08-08T10:34:32.043Z,58.34
2022-08-08T10:36:08.437Z,59.83
2022-08-08T10:36:32.045Z,58.34
2022-08-08T10:37:34.484Z,57.84
2022-08-08T10:38:32.058Z,58.54
2022-08-08T10:39:43.425Z,57.34
2022-08-08T10:40:32.367Z,57.54
2022-08-08T10:41:35.334Z,57.93
2022-08-08T10:42:32.534Z,58.54
2022-08-08T10:43:36.188Z,57.93
2022-08-08T10:44:32.058Z,58.84
2022-08-08T10:45:39.045Z,58.34
2022-08-08T10:46:32.074Z,57.93
2022-08-08T10:47:43.937Z,56.34
2022-08-08T10:48:32.069Z,57.14
2022-08-08T10:50:01.136Z,55.04
2022-08-08T10:50:32.072Z,56.94
2022-08-08T10:51:40.869Z,56.61
2022-08-08T10:52:32.221Z,56.44
2022-08-08T10:53:56.438Z,56.54
2022-08-08T10:54:32.083Z,55.51
2022-08-08T10:55:39.334Z,56.61
2022-08-08T10:56:34.872Z,59.31
2022-08-08T10:57:44.972Z,57.81
2022-08-08T10:58:32.092Z,56.44
2022-08-08T10:59:40.005Z,56.94
2022-08-08T11:00:32.094Z,56.54
2022-08-08T11:01:33.472Z,56.54
2022-08-08T11:02:32.680Z,56.74
2022-08-08T11:03:36.759Z,58.94
2022-08-08T11:04:39.130Z,58.64
2022-08-08T11:05:38.417Z,58.54
2022-08-08T11:06:34.512Z,56.84
2022-08-08T11:08:30.335Z,57.24
2022-08-08T11:08:41.183Z,58.01
2022-08-08T11:09:32.590Z,56.61
2022-08-08T11:10:32.116Z,57.81
2022-08-08T11:12:05.450Z,57.21
2022-08-08T11:12:32.124Z,57.58
2022-08-08T11:13:32.119Z,55.91
2022-08-08T11:14:32.124Z,57.18
2022-08-08T11:15:32.123Z,56.88
2022-08-08T11:16:33.453Z,55.29
2022-08-08T11:17:58.044Z,55.58
2022-08-08T11:18:32.128Z,56.09
2022-08-08T11:19:32.137Z,56.68
2022-08-08T11:20:32.137Z,56.29
2022-08-08T11:21:35.108Z,56.59
2022-08-08T11:22:32.350Z,57.88
2022-08-08T11:23:32.940Z,56.51
2022-08-08T11:24:32.142Z,56.11
2022-08-08T11:25:51.857Z,57.21
2022-08-08T11:26:32.146Z,56.81
2022-08-08T11:27:37.072Z,56.31
2022-08-08T11:28:32.155Z,56.29
2022-08-08T11:29:50.877Z,56.59
2022-08-08T11:30:32.164Z,57.09
2022-08-08T11:31:46.674Z,56.48
2022-08-08T11:32:32.343Z,56.96
2022-08-08T11:33:52.348Z,56.26
2022-08-08T11:34:41.878Z,55.36
2022-08-08T11:35:38.260Z,55.06
2022-08-08T11:36:32.175Z,55.16
2022-08-08T11:38:36.288Z,56.06
2022-08-08T11:38:37.126Z,54.46
2022-08-08T11:39:36.973Z,56.63
2022-08-08T11:40:32.176Z,55.56
2022-08-08T11:41:33.691Z,55.36
2022-08-08T11:42:32.540Z,56.06
2022-08-08T11:43:38.632Z,55.66
2022-08-08T11:44:32.188Z,54.46
2022-08-08T11:45:39.906Z,54.53
2022-08-08T11:46:32.915Z,56.26
2022-08-08T11:47:39.744Z,55.86
2022-08-08T11:48:32.198Z,56.76
2022-08-08T11:49:32.205Z,55.16
2022-08-08T11:50:32.204Z,56.18
2022-08-08T11:51:40.087Z,54.59
2022-08-08T11:52:32.257Z,56.16
2022-08-08T11:53:32.207Z,56.98
2022-08-08T11:54:33.589Z,55.36
2022-08-08T11:55:32.212Z,54.76
2022-08-08T11:56:32.219Z,54.27
2022-08-08T11:57:34.942Z,53.44
2022-08-08T11:58:32.218Z,55.96
2022-08-08T12:00:01.122Z,54.46
2022-08-08T12:00:32.225Z,56.66
2022-08-08T12:01:32.225Z,54.14
2022-08-08T12:02:41.755Z,54.46
2022-08-08T12:03:32.287Z,56.76
2022-08-08T12:04:32.235Z,54.57
2022-08-08T12:05:33.802Z,56.56
2022-08-08T12:06:32.239Z,56.13
2022-08-08T12:07:32.240Z,55.13
2022-08-08T12:08:32.244Z,54.04
2022-08-08T12:09:40.777Z,55.93
2022-08-08T12:10:32.246Z,54.31
2022-08-08T12:11:32.250Z,53.31
2022-08-08T12:12:32.380Z,53.02
2022-08-08T12:13:38.057Z,53.52
2022-08-08T12:14:32.259Z,55.21
2022-08-08T12:15:43.024Z,53.31
2022-08-08T12:16:44.678Z,53.81
2022-08-08T12:17:32.282Z,54.01
2022-08-08T12:18:32.271Z,53.22
2022-08-08T12:19:51.189Z,54.31
2022-08-08T12:20:32.270Z,54.71
2022-08-08T12:22:00.685Z,54.53
2022-08-08T12:22:44.978Z,54.34
2022-08-08T12:23:40.350Z,54.14
2022-08-08T12:24:32.280Z,53.24
2022-08-08T12:25:32.481Z,53.24
2022-08-08T12:26:35.853Z,54.53
2022-08-08T12:27:35.764Z,54.44
2022-08-08T12:28:32.302Z,54.74
2022-08-08T12:29:40.240Z,56.33
2022-08-08T12:30:32.293Z,54.24
2022-08-08T12:31:39.046Z,54.94
2022-08-08T12:32:32.620Z,54.34
2022-08-08T12:33:37.286Z,54.64
2022-08-08T12:34:35.881Z,53.41
2022-08-08T12:35:32.309Z,54.51
2022-08-08T12:36:34.560Z,55.31
2022-08-08T12:37:41.266Z,53.31
2022-08-08T12:38:32.316Z,53.71
2022-08-08T12:39:59.746Z,55.11
2022-08-08T12:40:32.352Z,53.81
2022-08-08T12:41:33.933Z,54.31
2022-08-08T12:42:33.822Z,54.31
2022-08-08T12:43:43.410Z,53.61
2022-08-08T12:44:32.923Z,53.02
2022-08-08T12:46:00.137Z,53.22
2022-08-08T12:46:32.339Z,53.02
2022-08-08T12:47:58.991Z,52.00
2022-08-08T12:48:37.039Z,52.79
2022-08-08T12:49:43.971Z,52.32
2022-08-08T12:50:32.346Z,53.81
2022-08-08T12:51:39.630Z,53.91
2022-08-08T12:52:32.349Z,53.52
2022-08-08T12:53:35.256Z,52.81
2022-08-08T12:54:33.236Z,52.42
2022-08-08T12:55:50.320Z,53.44